sensor_id;sensor_type;location;lat;lon;timestamp;P1;durP1;ratioP1;P2;durP2;ratioP2
54259;SDS011;40172;53.022;7.012;2023-05-10T00:00:57;32.67;;;22.98;;
54259;SDS011;40172;53.022;7.012;2023-05-10T00:03:23;34.92;;;24.13;;
54259;SDS011;40172;53.022;7.012;2023-05-10T00:05:48;33.58;;;24.15;;
54259;SDS011;40172;53.022;7.012;2023-05-10T00:08:14;34.20;;;24.48;;
54259;SDS011;40172;53.022;7.012;2023-05-10T00:10:40;33.42;;;24.23;;
54259;SDS011;40172;53.022;7.012;2023-05-10T00:13:06;34.70;;;24.55;;
54259;SDS011;40172;53.022;7.012;2023-05-10T00:15:31;32.55;;;23.65;;
54259;SDS011;40172;53.022;7.012;2023-05-10T00:17:57;33.25;;;24.17;;
54259;SDS011;40172;53.022;7.012;2023-05-10T00:20:22;31.92;;;23.30;;
54259;SDS011;40172;53.022;7.012;2023-05-10T00:22:48;34.30;;;23.83;;
54259;SDS011;40172;53.022;7.012;2023-05-10T00:25:14;31.65;;;22.63;;
54259;SDS011;40172;53.022;7.012;2023-05-10T00:27:39;16.73;;;14.35;;
54259;SDS011;40172;53.022;7.012;2023-05-10T00:30:05;15.70;;;12.18;;
54259;SDS011;40172;53.022;7.012;2023-05-10T00:32:31;15.95;;;12.93;;
54259;SDS011;40172;53.022;7.012;2023-05-10T00:34:57;16.05;;;12.30;;
54259;SDS011;40172;53.022;7.012;2023-05-10T00:37:22;15.68;;;13.15;;
54259;SDS011;40172;53.022;7.012;2023-05-10T00:39:48;8.32;;;7.30;;
54259;SDS011;40172;53.022;7.012;2023-05-10T00:42:13;8.88;;;8.07;;
54259;SDS011;40172;53.022;7.012;2023-05-10T00:44:39;8.57;;;7.78;;
54259;SDS011;40172;53.022;7.012;2023-05-10T00:47:05;10.65;;;9.65;;
54259;SDS011;40172;53.022;7.012;2023-05-10T00:49:30;10.90;;;9.10;;
54259;SDS011;40172;53.022;7.012;2023-05-10T00:51:56;10.40;;;9.20;;
54259;SDS011;40172;53.022;7.012;2023-05-10T00:54:22;13.40;;;10.50;;
54259;SDS011;40172;53.022;7.012;2023-05-10T00:56:48;11.35;;;10.25;;
54259;SDS011;40172;53.022;7.012;2023-05-10T00:59:17;13.18;;;11.88;;
54259;SDS011;40172;53.022;7.012;2023-05-10T01:01:46;14.20;;;12.70;;
54259;SDS011;40172;53.022;7.012;2023-05-10T01:04:12;17.15;;;14.45;;
54259;SDS011;40172;53.022;7.012;2023-05-10T01:06:39;16.42;;;14.73;;
54259;SDS011;40172;53.022;7.012;2023-05-10T01:09:08;17.08;;;15.07;;
54259;SDS011;40172;53.022;7.012;2023-05-10T01:11:34;13.32;;;12.02;;
54259;SDS011;40172;53.022;7.012;2023-05-10T01:14:01;15.55;;;13.60;;
54259;SDS011;40172;53.022;7.012;2023-05-10T01:16:28;17.05;;;14.00;;
54259;SDS011;40172;53.022;7.012;2023-05-10T01:18:58;16.80;;;14.30;;
54259;SDS011;40172;53.022;7.012;2023-05-10T01:34:55;19.70;;;14.93;;
54259;SDS011;40172;53.022;7.012;2023-05-10T01:37:29;21.10;;;14.88;;
54259;SDS011;40172;53.022;7.012;2023-05-10T01:40:14;19.25;;;14.40;;
54259;SDS011;40172;53.022;7.012;2023-05-10T01:42:48;17.80;;;14.57;;
54259;SDS011;40172;53.022;7.012;2023-05-10T01:45:20;19.27;;;13.25;;
54259;SDS011;40172;53.022;7.012;2023-05-10T01:47:54;18.27;;;14.35;;
54259;SDS011;40172;53.022;7.012;2023-05-10T01:50:27;17.63;;;13.43;;
54259;SDS011;40172;53.022;7.012;2023-05-10T01:52:56;17.95;;;13.75;;
54259;SDS011;40172;53.022;7.012;2023-05-10T01:55:25;21.40;;;14.45;;
54259;SDS011;40172;53.022;7.012;2023-05-10T01:57:57;21.38;;;14.98;;
54259;SDS011;40172;53.022;7.012;2023-05-10T02:00:27;18.30;;;14.32;;
54259;SDS011;40172;53.022;7.012;2023-05-10T02:02:54;17.55;;;14.07;;
54259;SDS011;40172;53.022;7.012;2023-05-10T02:05:20;16.02;;;12.88;;
54259;SDS011;40172;53.022;7.012;2023-05-10T02:07:47;18.60;;;14.65;;
54259;SDS011;40172;53.022;7.012;2023-05-10T02:10:14;21.92;;;15.18;;
54259;SDS011;40172;53.022;7.012;2023-05-10T02:12:44;20.42;;;15.63;;
54259;SDS011;40172;53.022;7.012;2023-05-10T02:15:12;19.85;;;16.08;;
54259;SDS011;40172;53.022;7.012;2023-05-10T02:17:43;19.77;;;14.95;;
54259;SDS011;40172;53.022;7.012;2023-05-10T02:20:11;20.85;;;15.88;;
54259;SDS011;40172;53.022;7.012;2023-05-10T02:22:38;18.65;;;14.88;;
54259;SDS011;40172;53.022;7.012;2023-05-10T02:25:06;21.83;;;16.50;;
54259;SDS011;40172;53.022;7.012;2023-05-10T02:27:35;22.48;;;16.65;;
54259;SDS011;40172;53.022;7.012;2023-05-10T02:30:02;20.83;;;16.33;;
54259;SDS011;40172;53.022;7.012;2023-05-10T02:32:30;21.38;;;15.45;;
54259;SDS011;40172;53.022;7.012;2023-05-10T02:34:56;19.52;;;14.20;;
54259;SDS011;40172;53.022;7.012;2023-05-10T02:37:23;16.83;;;13.60;;
54259;SDS011;40172;53.022;7.012;2023-05-10T02:39:50;18.52;;;13.55;;
54259;SDS011;40172;53.022;7.012;2023-05-10T02:42:19;18.70;;;14.70;;
54259;SDS011;40172;53.022;7.012;2023-05-10T02:44:52;18.57;;;15.40;;
54259;SDS011;40172;53.022;7.012;2023-05-10T02:47:24;21.10;;;15.20;;
54259;SDS011;40172;53.022;7.012;2023-05-10T02:49:50;18.80;;;15.20;;
54259;SDS011;40172;53.022;7.012;2023-05-10T02:52:16;18.30;;;14.73;;
54259;SDS011;40172;53.022;7.012;2023-05-10T02:54:48;24.02;;;17.27;;
54259;SDS011;40172;53.022;7.012;2023-05-10T02:57:17;24.38;;;16.33;;
54259;SDS011;40172;53.022;7.012;2023-05-10T02:59:50;24.55;;;16.92;;
54259;SDS011;40172;53.022;7.012;2023-05-10T03:02:16;23.45;;;17.02;;
54259;SDS011;40172;53.022;7.012;2023-05-10T03:04:41;22.50;;;16.33;;
54259;SDS011;40172;53.022;7.012;2023-05-10T03:07:07;29.30;;;17.92;;
54259;SDS011;40172;53.022;7.012;2023-05-10T03:09:33;26.38;;;17.70;;
54259;SDS011;40172;53.022;7.012;2023-05-10T03:12:03;27.25;;;17.50;;
54259;SDS011;40172;53.022;7.012;2023-05-10T03:14:34;25.27;;;16.90;;
54259;SDS011;40172;53.022;7.012;2023-05-10T03:19:43;25.05;;;16.77;;
54259;SDS011;40172;53.022;7.012;2023-05-10T03:22:17;24.55;;;17.92;;
54259;SDS011;40172;53.022;7.012;2023-05-10T03:24:48;26.35;;;18.20;;
54259;SDS011;40172;53.022;7.012;2023-05-10T03:27:14;23.58;;;17.15;;
54259;SDS011;40172;53.022;7.012;2023-05-10T03:29:40;24.33;;;16.88;;
54259;SDS011;40172;53.022;7.012;2023-05-10T03:32:07;24.42;;;17.02;;
54259;SDS011;40172;53.022;7.012;2023-05-10T03:34:33;29.98;;;17.88;;
54259;SDS011;40172;53.022;7.012;2023-05-10T03:36:58;30.20;;;18.38;;
54259;SDS011;40172;53.022;7.012;2023-05-10T03:39:24;30.45;;;18.23;;
54259;SDS011;40172;53.022;7.012;2023-05-10T03:41:49;28.90;;;18.38;;
54259;SDS011;40172;53.022;7.012;2023-05-10T03:44:15;31.42;;;18.90;;
54259;SDS011;40172;53.022;7.012;2023-05-10T03:46:41;32.88;;;19.13;;
54259;SDS011;40172;53.022;7.012;2023-05-10T03:49:07;32.97;;;17.88;;
54259;SDS011;40172;53.022;7.012;2023-05-10T03:51:32;31.77;;;19.65;;
54259;SDS011;40172;53.022;7.012;2023-05-10T03:53:58;31.63;;;19.58;;
54259;SDS011;40172;53.022;7.012;2023-05-10T03:56:23;33.28;;;20.48;;
54259;SDS011;40172;53.022;7.012;2023-05-10T03:58:49;30.80;;;18.80;;
54259;SDS011;40172;53.022;7.012;2023-05-10T04:01:14;30.17;;;19.10;;
54259;SDS011;40172;53.022;7.012;2023-05-10T04:03:40;27.60;;;18.33;;
54259;SDS011;40172;53.022;7.012;2023-05-10T04:06:05;32.28;;;19.27;;
54259;SDS011;40172;53.022;7.012;2023-05-10T04:08:33;27.88;;;18.95;;
54259;SDS011;40172;53.022;7.012;2023-05-10T04:11:09;28.60;;;18.77;;
54259;SDS011;40172;53.022;7.012;2023-05-10T04:13:36;29.38;;;19.35;;
54259;SDS011;40172;53.022;7.012;2023-05-10T04:16:03;29.38;;;18.80;;
54259;SDS011;40172;53.022;7.012;2023-05-10T04:18:29;28.40;;;18.38;;
54259;SDS011;40172;53.022;7.012;2023-05-10T04:20:55;30.70;;;19.10;;
54259;SDS011;40172;53.022;7.012;2023-05-10T04:23:21;26.90;;;18.77;;
54259;SDS011;40172;53.022;7.012;2023-05-10T04:25:46;31.05;;;22.00;;
54259;SDS011;40172;53.022;7.012;2023-05-10T04:28:12;28.88;;;19.20;;
54259;SDS011;40172;53.022;7.012;2023-05-10T04:30:38;29.27;;;19.52;;
54259;SDS011;40172;53.022;7.012;2023-05-10T04:33:04;26.63;;;18.13;;
54259;SDS011;40172;53.022;7.012;2023-05-10T04:35:29;25.20;;;17.85;;
54259;SDS011;40172;53.022;7.012;2023-05-10T04:37:56;25.10;;;17.60;;
54259;SDS011;40172;53.022;7.012;2023-05-10T04:40:21;26.80;;;17.08;;
54259;SDS011;40172;53.022;7.012;2023-05-10T04:42:47;26.38;;;17.50;;
54259;SDS011;40172;53.022;7.012;2023-05-10T04:45:12;22.63;;;16.73;;
54259;SDS011;40172;53.022;7.012;2023-05-10T04:47:39;23.48;;;16.80;;
54259;SDS011;40172;53.022;7.012;2023-05-10T04:50:05;22.25;;;15.65;;
54259;SDS011;40172;53.022;7.012;2023-05-10T04:52:32;21.70;;;15.35;;
54259;SDS011;40172;53.022;7.012;2023-05-10T04:54:57;19.70;;;13.70;;
54259;SDS011;40172;53.022;7.012;2023-05-10T04:57:23;18.65;;;13.85;;
54259;SDS011;40172;53.022;7.012;2023-05-10T04:59:49;19.27;;;13.73;;
54259;SDS011;40172;53.022;7.012;2023-05-10T05:02:14;21.40;;;16.83;;
54259;SDS011;40172;53.022;7.012;2023-05-10T05:04:40;18.65;;;14.07;;
54259;SDS011;40172;53.022;7.012;2023-05-10T05:07:05;17.90;;;12.48;;
54259;SDS011;40172;53.022;7.012;2023-05-10T05:09:31;15.82;;;12.70;;
54259;SDS011;40172;53.022;7.012;2023-05-10T05:11:59;18.90;;;11.93;;
54259;SDS011;40172;53.022;7.012;2023-05-10T05:14:25;14.98;;;11.85;;
54259;SDS011;40172;53.022;7.012;2023-05-10T05:16:51;15.45;;;11.35;;
54259;SDS011;40172;53.022;7.012;2023-05-10T05:19:17;12.50;;;10.48;;
54259;SDS011;40172;53.022;7.012;2023-05-10T05:21:42;14.13;;;10.02;;
54259;SDS011;40172;53.022;7.012;2023-05-10T05:24:08;13.20;;;10.00;;
54259;SDS011;40172;53.022;7.012;2023-05-10T05:26:35;12.40;;;9.00;;
54259;SDS011;40172;53.022;7.012;2023-05-10T05:29:01;12.68;;;8.90;;
54259;SDS011;40172;53.022;7.012;2023-05-10T05:31:28;11.57;;;9.23;;
54259;SDS011;40172;53.022;7.012;2023-05-10T05:33:53;30.55;;;10.18;;
54259;SDS011;40172;53.022;7.012;2023-05-10T05:36:19;11.65;;;10.00;;
54259;SDS011;40172;53.022;7.012;2023-05-10T05:38:45;12.15;;;10.18;;
54259;SDS011;40172;53.022;7.012;2023-05-10T05:41:10;13.20;;;9.65;;
54259;SDS011;40172;53.022;7.012;2023-05-10T05:43:36;13.93;;;9.93;;
54259;SDS011;40172;53.022;7.012;2023-05-10T05:46:01;13.05;;;9.98;;
54259;SDS011;40172;53.022;7.012;2023-05-10T05:48:27;12.32;;;9.30;;
54259;SDS011;40172;53.022;7.012;2023-05-10T05:50:55;11.80;;;9.57;;
54259;SDS011;40172;53.022;7.012;2023-05-10T05:53:24;11.00;;;9.30;;
54259;SDS011;40172;53.022;7.012;2023-05-10T05:55:53;9.68;;;8.77;;
54259;SDS011;40172;53.022;7.012;2023-05-10T05:58:20;10.80;;;8.40;;
54259;SDS011;40172;53.022;7.012;2023-05-10T06:00:47;11.18;;;7.82;;
54259;SDS011;40172;53.022;7.012;2023-05-10T06:03:13;9.90;;;7.90;;
54259;SDS011;40172;53.022;7.012;2023-05-10T06:05:38;11.13;;;8.15;;
54259;SDS011;40172;53.022;7.012;2023-05-10T06:08:04;10.27;;;8.93;;
54259;SDS011;40172;53.022;7.012;2023-05-10T06:10:30;9.85;;;6.95;;
54259;SDS011;40172;53.022;7.012;2023-05-10T06:12:55;8.55;;;7.25;;
54259;SDS011;40172;53.022;7.012;2023-05-10T06:15:21;8.10;;;7.28;;
54259;SDS011;40172;53.022;7.012;2023-05-10T06:17:47;8.95;;;7.65;;
54259;SDS011;40172;53.022;7.012;2023-05-10T06:20:14;8.38;;;7.32;;
54259;SDS011;40172;53.022;7.012;2023-05-10T06:22:40;10.95;;;8.07;;
54259;SDS011;40172;53.022;7.012;2023-05-10T06:25:06;20.52;;;8.05;;
54259;SDS011;40172;53.022;7.012;2023-05-10T06:27:32;9.25;;;7.10;;
54259;SDS011;40172;53.022;7.012;2023-05-10T06:29:58;10.75;;;7.00;;
54259;SDS011;40172;53.022;7.012;2023-05-10T06:32:23;9.88;;;6.93;;
54259;SDS011;40172;53.022;7.012;2023-05-10T06:34:49;7.45;;;5.90;;
54259;SDS011;40172;53.022;7.012;2023-05-10T06:37:15;7.50;;;5.95;;
54259;SDS011;40172;53.022;7.012;2023-05-10T06:39:40;6.82;;;6.00;;
54259;SDS011;40172;53.022;7.012;2023-05-10T06:42:06;7.43;;;6.10;;
54259;SDS011;40172;53.022;7.012;2023-05-10T06:44:31;8.20;;;5.95;;
54259;SDS011;40172;53.022;7.012;2023-05-10T06:46:57;7.10;;;5.65;;
54259;SDS011;40172;53.022;7.012;2023-05-10T06:49:23;6.50;;;5.50;;
54259;SDS011;40172;53.022;7.012;2023-05-10T06:51:48;6.60;;;5.75;;
54259;SDS011;40172;53.022;7.012;2023-05-10T06:54:14;6.43;;;5.72;;
54259;SDS011;40172;53.022;7.012;2023-05-10T06:56:39;7.43;;;5.93;;
54259;SDS011;40172;53.022;7.012;2023-05-10T06:59:06;5.65;;;5.13;;
54259;SDS011;40172;53.022;7.012;2023-05-10T07:01:32;6.72;;;5.55;;
54259;SDS011;40172;53.022;7.012;2023-05-10T07:03:57;8.35;;;6.03;;
54259;SDS011;40172;53.022;7.012;2023-05-10T07:06:23;7.90;;;6.20;;
54259;SDS011;40172;53.022;7.012;2023-05-10T07:08:49;35.40;;;6.53;;
54259;SDS011;40172;53.022;7.012;2023-05-10T07:11:14;5.80;;;5.20;;
54259;SDS011;40172;53.022;7.012;2023-05-10T07:13:40;15.68;;;4.40;;
54259;SDS011;40172;53.022;7.012;2023-05-10T07:16:08;5.63;;;3.20;;
54259;SDS011;40172;53.022;7.012;2023-05-10T07:18:35;3.90;;;2.75;;
54259;SDS011;40172;53.022;7.012;2023-05-10T07:21:01;3.17;;;1.35;;
54259;SDS011;40172;53.022;7.012;2023-05-10T07:23:26;3.00;;;1.98;;
54259;SDS011;40172;53.022;7.012;2023-05-10T07:25:52;15.90;;;7.65;;
54259;SDS011;40172;53.022;7.012;2023-05-10T07:28:18;4.72;;;2.03;;
54259;SDS011;40172;53.022;7.012;2023-05-10T07:30:44;1.20;;;1.10;;
54259;SDS011;40172;53.022;7.012;2023-05-10T07:33:12;1.30;;;1.00;;
54259;SDS011;40172;53.022;7.012;2023-05-10T07:35:38;1.60;;;1.17;;
54259;SDS011;40172;53.022;7.012;2023-05-10T07:38:04;1.52;;;1.05;;
54259;SDS011;40172;53.022;7.012;2023-05-10T07:40:30;13.10;;;1.42;;
54259;SDS011;40172;53.022;7.012;2023-05-10T07:42:56;1.73;;;1.08;;
54259;SDS011;40172;53.022;7.012;2023-05-10T07:45:22;1.38;;;0.80;;
54259;SDS011;40172;53.022;7.012;2023-05-10T07:47:49;0.90;;;0.90;;
54259;SDS011;40172;53.022;7.012;2023-05-10T07:50:14;4.65;;;1.08;;
54259;SDS011;40172;53.022;7.012;2023-05-10T07:52:40;1.55;;;0.82;;
54259;SDS011;40172;53.022;7.012;2023-05-10T07:55:06;1.58;;;0.80;;
54259;SDS011;40172;53.022;7.012;2023-05-10T07:57:33;1.70;;;0.85;;
54259;SDS011;40172;53.022;7.012;2023-05-10T07:59:59;0.77;;;0.70;;
54259;SDS011;40172;53.022;7.012;2023-05-10T08:02:25;1.25;;;0.80;;
54259;SDS011;40172;53.022;7.012;2023-05-10T08:04:50;2.95;;;0.73;;
54259;SDS011;40172;53.022;7.012;2023-05-10T08:07:16;1.67;;;0.50;;
54259;SDS011;40172;53.022;7.012;2023-05-10T08:09:42;1.73;;;0.40;;
54259;SDS011;40172;53.022;7.012;2023-05-10T08:12:07;0.20;;;0.20;;
54259;SDS011;40172;53.022;7.012;2023-05-10T08:14:33;1.45;;;0.30;;
54259;SDS011;40172;53.022;7.012;2023-05-10T08:16:59;0.60;;;0.20;;
54259;SDS011;40172;53.022;7.012;2023-05-10T08:19:25;0.30;;;0.30;;
54259;SDS011;40172;53.022;7.012;2023-05-10T08:21:51;1.58;;;0.40;;
54259;SDS011;40172;53.022;7.012;2023-05-10T08:24:18;0.32;;;0.20;;
54259;SDS011;40172;53.022;7.012;2023-05-10T08:26:44;1.38;;;0.60;;
54259;SDS011;40172;53.022;7.012;2023-05-10T08:29:09;0.30;;;0.30;;
54259;SDS011;40172;53.022;7.012;2023-05-10T08:31:35;0.77;;;0.30;;
54259;SDS011;40172;53.022;7.012;2023-05-10T08:34:00;2.65;;;0.30;;
54259;SDS011;40172;53.022;7.012;2023-05-10T08:36:26;1.45;;;0.40;;
54259;SDS011;40172;53.022;7.012;2023-05-10T08:38:53;0.88;;;0.50;;
54259;SDS011;40172;53.022;7.012;2023-05-10T08:41:22;20.48;;;2.25;;
54259;SDS011;40172;53.022;7.012;2023-05-10T08:43:52;11.57;;;0.90;;
54259;SDS011;40172;53.022;7.012;2023-05-10T08:46:19;1.90;;;0.90;;
54259;SDS011;40172;53.022;7.012;2023-05-10T08:48:46;0.90;;;0.90;;
54259;SDS011;40172;53.022;7.012;2023-05-10T08:51:13;2.42;;;0.98;;
54259;SDS011;40172;53.022;7.012;2023-05-10T08:53:41;1.90;;;1.20;;
54259;SDS011;40172;53.022;7.012;2023-05-10T08:56:07;1.25;;;1.20;;
54259;SDS011;40172;53.022;7.012;2023-05-10T08:58:33;1.40;;;1.30;;
54259;SDS011;40172;53.022;7.012;2023-05-10T09:00:59;1.80;;;1.70;;
54259;SDS011;40172;53.022;7.012;2023-05-10T09:03:25;2.38;;;2.00;;
54259;SDS011;40172;53.022;7.012;2023-05-10T09:05:51;2.20;;;2.00;;
54259;SDS011;40172;53.022;7.012;2023-05-10T09:08:17;2.92;;;2.50;;
54259;SDS011;40172;53.022;7.012;2023-05-10T09:10:44;3.10;;;2.90;;
54259;SDS011;40172;53.022;7.012;2023-05-10T09:13:12;3.05;;;2.83;;
54259;SDS011;40172;53.022;7.012;2023-05-10T09:15:40;3.70;;;3.13;;
54259;SDS011;40172;53.022;7.012;2023-05-10T09:18:05;3.85;;;3.45;;
54259;SDS011;40172;53.022;7.012;2023-05-10T09:20:31;4.40;;;4.00;;
54259;SDS011;40172;53.022;7.012;2023-05-10T09:22:57;4.90;;;4.18;;
54259;SDS011;40172;53.022;7.012;2023-05-10T09:25:22;5.25;;;4.10;;
54259;SDS011;40172;53.022;7.012;2023-05-10T09:27:48;3.88;;;3.50;;
54259;SDS011;40172;53.022;7.012;2023-05-10T09:30:18;5.38;;;4.07;;
54259;SDS011;40172;53.022;7.012;2023-05-10T09:32:57;4.47;;;3.90;;
54259;SDS011;40172;53.022;7.012;2023-05-10T09:35:24;4.75;;;4.30;;
54259;SDS011;40172;53.022;7.012;2023-05-10T09:37:52;5.82;;;5.10;;
54259;SDS011;40172;53.022;7.012;2023-05-10T09:40:23;6.10;;;5.03;;
54259;SDS011;40172;53.022;7.012;2023-05-10T09:42:59;4.78;;;4.20;;
54259;SDS011;40172;53.022;7.012;2023-05-10T09:45:27;5.72;;;4.80;;
54259;SDS011;40172;53.022;7.012;2023-05-10T09:47:54;5.82;;;4.32;;
54259;SDS011;40172;53.022;7.012;2023-05-10T09:50:21;5.55;;;4.68;;
54259;SDS011;40172;53.022;7.012;2023-05-10T09:55:37;6.32;;;4.85;;
54259;SDS011;40172;53.022;7.012;2023-05-10T09:58:05;5.93;;;4.80;;
54259;SDS011;40172;53.022;7.012;2023-05-10T10:00:39;5.20;;;4.70;;
54259;SDS011;40172;53.022;7.012;2023-05-10T10:03:05;5.85;;;4.40;;
54259;SDS011;40172;53.022;7.012;2023-05-10T10:05:32;5.07;;;4.20;;
54259;SDS011;40172;53.022;7.012;2023-05-10T10:08:04;6.28;;;4.40;;
54259;SDS011;40172;53.022;7.012;2023-05-10T10:10:31;4.68;;;4.28;;
54259;SDS011;40172;53.022;7.012;2023-05-10T10:12:57;5.63;;;4.40;;
54259;SDS011;40172;53.022;7.012;2023-05-10T10:15:24;6.10;;;4.35;;
54259;SDS011;40172;53.022;7.012;2023-05-10T10:17:51;5.10;;;4.55;;
54259;SDS011;40172;53.022;7.012;2023-05-10T10:20:18;6.00;;;4.10;;
54259;SDS011;40172;53.022;7.012;2023-05-10T10:22:45;4.97;;;4.47;;
54259;SDS011;40172;53.022;7.012;2023-05-10T10:25:12;4.53;;;4.10;;
54259;SDS011;40172;53.022;7.012;2023-05-10T10:27:48;6.63;;;4.75;;
54259;SDS011;40172;53.022;7.012;2023-05-10T10:36:00;5.72;;;3.63;;
54259;SDS011;40172;53.022;7.012;2023-05-10T10:41:26;5.68;;;3.03;;
54259;SDS011;40172;53.022;7.012;2023-05-10T10:50:22;4.50;;;3.78;;
54259;SDS011;40172;53.022;7.012;2023-05-10T10:55:17;4.50;;;4.10;;
54259;SDS011;40172;53.022;7.012;2023-05-10T10:57:50;5.03;;;3.88;;
54259;SDS011;40172;53.022;7.012;2023-05-10T11:03:09;4.28;;;3.28;;
54259;SDS011;40172;53.022;7.012;2023-05-10T11:05:49;5.75;;;3.60;;
54259;SDS011;40172;53.022;7.012;2023-05-10T11:08:29;3.83;;;3.20;;
54259;SDS011;40172;53.022;7.012;2023-05-10T11:13:28;5.75;;;4.07;;
54259;SDS011;40172;53.022;7.012;2023-05-10T11:16:12;5.25;;;3.63;;
54259;SDS011;40172;53.022;7.012;2023-05-10T11:18:52;4.57;;;3.70;;
54259;SDS011;40172;53.022;7.012;2023-05-10T11:21:28;5.47;;;4.22;;
54259;SDS011;40172;53.022;7.012;2023-05-10T11:23:58;6.32;;;4.38;;
54259;SDS011;40172;53.022;7.012;2023-05-10T11:26:25;4.65;;;4.03;;
54259;SDS011;40172;53.022;7.012;2023-05-10T11:28:57;4.97;;;4.05;;
54259;SDS011;40172;53.022;7.012;2023-05-10T11:31:27;6.03;;;4.10;;
54259;SDS011;40172;53.022;7.012;2023-05-10T11:33:54;7.57;;;4.05;;
54259;SDS011;40172;53.022;7.012;2023-05-10T11:36:24;6.72;;;4.40;;
54259;SDS011;40172;53.022;7.012;2023-05-10T11:38:54;6.72;;;4.03;;
54259;SDS011;40172;53.022;7.012;2023-05-10T11:41:21;6.75;;;4.13;;
54259;SDS011;40172;53.022;7.012;2023-05-10T11:43:53;6.18;;;4.32;;
54259;SDS011;40172;53.022;7.012;2023-05-10T11:46:20;5.85;;;4.28;;
54259;SDS011;40172;53.022;7.012;2023-05-10T11:48:46;7.65;;;5.20;;
54259;SDS011;40172;53.022;7.012;2023-05-10T11:51:19;9.18;;;5.82;;
54259;SDS011;40172;53.022;7.012;2023-05-10T11:53:46;6.95;;;5.40;;
54259;SDS011;40172;53.022;7.012;2023-05-10T11:56:12;7.97;;;5.45;;
54259;SDS011;40172;53.022;7.012;2023-05-10T11:58:38;6.68;;;5.55;;
54259;SDS011;40172;53.022;7.012;2023-05-10T12:01:05;7.05;;;5.93;;
54259;SDS011;40172;53.022;7.012;2023-05-10T12:03:32;7.03;;;5.85;;
54259;SDS011;40172;53.022;7.012;2023-05-10T12:05:58;7.93;;;5.97;;
54259;SDS011;40172;53.022;7.012;2023-05-10T12:08:25;8.63;;;5.55;;
54259;SDS011;40172;53.022;7.012;2023-05-10T12:10:53;6.85;;;5.43;;
54259;SDS011;40172;53.022;7.012;2023-05-10T12:13:28;8.80;;;5.97;;
54259;SDS011;40172;53.022;7.012;2023-05-10T12:15:54;8.07;;;5.88;;
54259;SDS011;40172;53.022;7.012;2023-05-10T12:18:23;7.90;;;5.32;;
54259;SDS011;40172;53.022;7.012;2023-05-10T12:20:52;7.18;;;5.18;;
54259;SDS011;40172;53.022;7.012;2023-05-10T12:23:18;9.23;;;5.53;;
54259;SDS011;40172;53.022;7.012;2023-05-10T12:25:45;8.82;;;5.60;;
54259;SDS011;40172;53.022;7.012;2023-05-10T12:28:10;8.60;;;5.60;;
54259;SDS011;40172;53.022;7.012;2023-05-10T12:30:36;10.43;;;6.30;;
54259;SDS011;40172;53.022;7.012;2023-05-10T12:33:10;6.55;;;4.90;;
54259;SDS011;40172;53.022;7.012;2023-05-10T12:35:50;7.90;;;5.65;;
54259;SDS011;40172;53.022;7.012;2023-05-10T12:38:28;7.13;;;5.38;;
54259;SDS011;40172;53.022;7.012;2023-05-10T12:40:56;6.55;;;5.40;;
54259;SDS011;40172;53.022;7.012;2023-05-10T12:43:25;9.57;;;5.38;;
54259;SDS011;40172;53.022;7.012;2023-05-10T12:45:51;5.25;;;4.38;;
54259;SDS011;40172;53.022;7.012;2023-05-10T12:48:17;6.28;;;4.80;;
54259;SDS011;40172;53.022;7.012;2023-05-10T12:50:43;7.55;;;5.47;;
54259;SDS011;40172;53.022;7.012;2023-05-10T12:53:08;7.45;;;5.40;;
54259;SDS011;40172;53.022;7.012;2023-05-10T12:55:34;6.32;;;4.80;;
54259;SDS011;40172;53.022;7.012;2023-05-10T12:58:00;5.57;;;3.88;;
54259;SDS011;40172;53.022;7.012;2023-05-10T13:00:25;9.23;;;4.78;;
54259;SDS011;40172;53.022;7.012;2023-05-10T13:02:51;8.38;;;5.30;;
54259;SDS011;40172;53.022;7.012;2023-05-10T13:05:17;7.00;;;5.35;;
54259;SDS011;40172;53.022;7.012;2023-05-10T13:07:42;6.80;;;5.30;;
54259;SDS011;40172;53.022;7.012;2023-05-10T13:10:08;6.00;;;4.88;;
54259;SDS011;40172;53.022;7.012;2023-05-10T13:12:35;8.75;;;5.40;;
54259;SDS011;40172;53.022;7.012;2023-05-10T13:15:00;7.40;;;5.10;;
54259;SDS011;40172;53.022;7.012;2023-05-10T13:17:27;7.47;;;5.10;;
54259;SDS011;40172;53.022;7.012;2023-05-10T13:19:53;7.18;;;5.28;;
54259;SDS011;40172;53.022;7.012;2023-05-10T13:22:18;7.70;;;5.60;;
54259;SDS011;40172;53.022;7.012;2023-05-10T13:24:44;8.90;;;5.82;;
54259;SDS011;40172;53.022;7.012;2023-05-10T13:27:10;10.07;;;6.25;;
54259;SDS011;40172;53.022;7.012;2023-05-10T13:29:35;11.50;;;6.30;;
54259;SDS011;40172;53.022;7.012;2023-05-10T13:32:01;7.40;;;5.95;;
54259;SDS011;40172;53.022;7.012;2023-05-10T13:34:27;8.43;;;4.95;;
54259;SDS011;40172;53.022;7.012;2023-05-10T13:36:53;8.18;;;5.38;;
54259;SDS011;40172;53.022;7.012;2023-05-10T13:39:19;7.35;;;5.47;;
54259;SDS011;40172;53.022;7.012;2023-05-10T13:41:45;8.07;;;6.13;;
54259;SDS011;40172;53.022;7.012;2023-05-10T13:44:14;8.18;;;6.40;;
54259;SDS011;40172;53.022;7.012;2023-05-10T13:46:41;7.70;;;6.03;;
54259;SDS011;40172;53.022;7.012;2023-05-10T13:49:10;8.10;;;6.70;;
54259;SDS011;40172;53.022;7.012;2023-05-10T13:51:35;8.88;;;6.45;;
54259;SDS011;40172;53.022;7.012;2023-05-10T13:54:01;9.43;;;6.40;;
54259;SDS011;40172;53.022;7.012;2023-05-10T13:56:27;10.60;;;6.28;;
54259;SDS011;40172;53.022;7.012;2023-05-10T13:58:53;9.15;;;6.43;;
54259;SDS011;40172;53.022;7.012;2023-05-10T14:01:18;8.85;;;6.45;;
54259;SDS011;40172;53.022;7.012;2023-05-10T14:03:44;8.88;;;5.65;;
54259;SDS011;40172;53.022;7.012;2023-05-10T14:06:10;8.55;;;5.82;;
54259;SDS011;40172;53.022;7.012;2023-05-10T14:08:35;7.57;;;5.57;;
54259;SDS011;40172;53.022;7.012;2023-05-10T14:11:01;8.13;;;5.95;;
54259;SDS011;40172;53.022;7.012;2023-05-10T14:13:27;10.15;;;6.00;;
54259;SDS011;40172;53.022;7.012;2023-05-10T14:15:53;10.10;;;5.93;;
54259;SDS011;40172;53.022;7.012;2023-05-10T14:18:19;8.25;;;6.65;;
54259;SDS011;40172;53.022;7.012;2023-05-10T14:20:44;9.27;;;6.60;;
54259;SDS011;40172;53.022;7.012;2023-05-10T14:23:10;11.48;;;7.45;;
54259;SDS011;40172;53.022;7.012;2023-05-10T14:25:36;9.95;;;6.85;;
54259;SDS011;40172;53.022;7.012;2023-05-10T14:28:02;8.68;;;6.63;;
54259;SDS011;40172;53.022;7.012;2023-05-10T14:30:28;10.63;;;7.07;;
54259;SDS011;40172;53.022;7.012;2023-05-10T14:32:54;9.27;;;7.57;;
54259;SDS011;40172;53.022;7.012;2023-05-10T14:35:20;11.90;;;7.05;;
54259;SDS011;40172;53.022;7.012;2023-05-10T14:37:46;11.23;;;7.65;;
54259;SDS011;40172;53.022;7.012;2023-05-10T14:40:11;12.00;;;7.70;;
54259;SDS011;40172;53.022;7.012;2023-05-10T14:42:37;10.20;;;7.53;;
54259;SDS011;40172;53.022;7.012;2023-05-10T14:45:03;11.18;;;8.18;;
54259;SDS011;40172;53.022;7.012;2023-05-10T14:47:29;11.10;;;8.00;;
54259;SDS011;40172;53.022;7.012;2023-05-10T14:49:55;11.10;;;7.18;;
54259;SDS011;40172;53.022;7.012;2023-05-10T14:52:20;9.43;;;7.18;;
54259;SDS011;40172;53.022;7.012;2023-05-10T14:54:46;7.28;;;6.55;;
54259;SDS011;40172;53.022;7.012;2023-05-10T14:57:11;10.10;;;6.90;;
54259;SDS011;40172;53.022;7.012;2023-05-10T14:59:37;9.32;;;6.53;;
54259;SDS011;40172;53.022;7.012;2023-05-10T15:02:03;8.60;;;5.72;;
54259;SDS011;40172;53.022;7.012;2023-05-10T15:04:29;9.88;;;6.25;;
54259;SDS011;40172;53.022;7.012;2023-05-10T15:06:55;11.50;;;6.40;;
54259;SDS011;40172;53.022;7.012;2023-05-10T15:09:24;10.75;;;6.97;;
54259;SDS011;40172;53.022;7.012;2023-05-10T15:11:50;10.80;;;7.38;;
54259;SDS011;40172;53.022;7.012;2023-05-10T15:14:16;9.68;;;6.97;;
54259;SDS011;40172;53.022;7.012;2023-05-10T15:16:41;10.80;;;6.50;;